createdAt,value
2022-10-23T00:01:00.726Z,45.30
2022-10-23T00:03:28.443Z,44.69
2022-10-23T00:05:56.256Z,44.86
2022-10-23T00:08:23.948Z,44.90
2022-10-23T00:10:51.649Z,45.28
2022-10-23T00:13:19.309Z,44.74
2022-10-23T00:15:47.107Z,44.78
2022-10-23T00:18:14.820Z,45.09
2022-10-23T00:20:42.591Z,45.20
2022-10-23T00:23:10.282Z,45.35
2022-10-23T00:25:38.975Z,44.98
2022-10-23T00:28:06.608Z,44.82
2022-10-23T00:30:34.366Z,45.39
2022-10-23T00:33:02.029Z,45.23
2022-10-23T00:35:29.724Z,45.24
2022-10-23T00:37:57.485Z,45.42
2022-10-23T00:40:25.352Z,45.39
2022-10-23T00:42:53.014Z,44.80
2022-10-23T00:45:20.701Z,45.17
2022-10-23T00:47:48.483Z,45.16
2022-10-23T00:50:16.126Z,45.24
2022-10-23T00:52:44.086Z,45.17
2022-10-23T00:55:11.941Z,45.25
2022-10-23T00:57:39.647Z,45.05
2022-10-23T01:00:07.402Z,45.18
2022-10-23T01:02:35.141Z,45.37
2022-10-23T01:05:03.035Z,45.35
2022-10-23T01:07:30.714Z,45.35
2022-10-23T01:09:58.428Z,45.19
2022-10-23T01:12:26.127Z,44.73
2022-10-23T01:14:54.808Z,45.02
2022-10-23T01:17:22.553Z,44.80
2022-10-23T01:19:50.415Z,45.23
2022-10-23T01:22:18.166Z,45.23
2022-10-23T01:24:45.983Z,44.96
2022-10-23T01:27:13.825Z,44.74
2022-10-23T01:29:41.542Z,44.99
2022-10-23T01:32:09.245Z,45.37
2022-10-23T01:34:37.088Z,45.20
2022-10-23T01:37:04.843Z,45.30
2022-10-23T01:39:32.811Z,44.78
2022-10-23T01:42:00.444Z,45.41
2022-10-23T01:44:28.150Z,44.87
2022-10-23T01:46:55.828Z,44.88
2022-10-23T01:49:23.575Z,45.21
2022-10-23T01:51:51.292Z,44.99
2022-10-23T01:54:18.947Z,44.96
2022-10-23T01:56:46.715Z,45.26
2022-10-23T01:59:14.532Z,45.27
2022-10-23T02:01:42.413Z,45.23
2022-10-23T02:04:10.172Z,45.33
2022-10-23T02:06:37.851Z,45.01
2022-10-23T02:09:05.520Z,45.46
2022-10-23T02:11:33.181Z,45.31
2022-10-23T02:14:00.870Z,44.87
2022-10-23T02:16:28.532Z,45.29
2022-10-23T02:18:56.271Z,45.30
2022-10-23T02:21:24.162Z,45.13
2022-10-23T02:23:53.781Z,45.23
2022-10-23T02:26:23.809Z,45.32
2022-10-23T02:28:51.514Z,45.21
2022-10-23T02:31:19.274Z,45.27
2022-10-23T02:33:47.027Z,44.94
2022-10-23T02:36:14.726Z,44.93
2022-10-23T02:38:42.428Z,45.18
2022-10-23T02:41:10.085Z,45.37
2022-10-23T02:43:37.937Z,44.90
2022-10-23T02:46:05.573Z,45.24
2022-10-23T02:48:33.315Z,45.47
2022-10-23T02:51:01.428Z,45.30
2022-10-23T02:53:29.075Z,44.98
2022-10-23T02:55:56.781Z,45.37
2022-10-23T02:58:24.453Z,44.87
2022-10-23T03:00:52.104Z,45.35
2022-10-23T03:03:20.182Z,44.89
2022-10-23T03:05:47.838Z,45.33
2022-10-23T03:08:15.492Z,45.05
2022-10-23T03:10:43.266Z,45.16
2022-10-23T03:13:10.989Z,45.31
2022-10-23T03:15:38.774Z,45.26
2022-10-23T03:18:06.575Z,45.06
2022-10-23T03:20:34.577Z,45.43
2022-10-23T03:23:02.261Z,45.14
2022-10-23T03:25:30.154Z,45.15
2022-10-23T03:27:57.883Z,45.12
2022-10-23T03:30:25.532Z,44.92
2022-10-23T03:32:53.252Z,45.08
2022-10-23T03:35:20.969Z,45.31
2022-10-23T03:37:48.780Z,45.43
2022-10-23T03:40:16.423Z,45.20
2022-10-23T03:42:44.109Z,45.27
2022-10-23T03:45:11.950Z,45.21
2022-10-23T03:47:41.524Z,44.84
2022-10-23T03:50:09.934Z,45.29
2022-10-23T03:52:37.627Z,45.35
2022-10-23T03:55:05.332Z,45.11
2022-10-23T03:57:33.000Z,45.08
2022-10-23T04:00:00.680Z,45.37
2022-10-23T04:02:28.400Z,45.34
2022-10-23T04:04:56.097Z,45.41
2022-10-23T04:07:25.742Z,45.06
2022-10-23T04:09:53.428Z,44.99
2022-10-23T04:12:21.195Z,45.08
2022-10-23T04:14:48.830Z,45.32
2022-10-23T04:17:16.527Z,45.56
2022-10-23T04:19:44.436Z,44.96
2022-10-23T04:22:12.080Z,44.90
2022-10-23T04:24:43.852Z,45.19
2022-10-23T04:27:11.567Z,44.89
2022-10-23T04:29:39.429Z,44.99
2022-10-23T04:32:07.116Z,45.39
2022-10-23T04:34:34.779Z,45.46
2022-10-23T04:37:02.701Z,45.55
2022-10-23T04:39:30.613Z,44.96
2022-10-23T04:41:58.559Z,45.29
2022-10-23T04:44:26.182Z,45.40
2022-10-23T04:46:53.923Z,44.47
2022-10-23T04:49:21.622Z,39.94
2022-10-23T04:51:49.272Z,32.46
2022-10-23T04:54:16.895Z,27.09
2022-10-23T04:56:44.605Z,23.61
2022-10-23T04:59:12.256Z,21.70
2022-10-23T05:01:46.830Z,21.12
2022-10-23T05:04:14.988Z,20.25
2022-10-23T05:06:42.662Z,20.78
2022-10-23T05:09:10.539Z,20.85
2022-10-23T05:11:38.186Z,21.37
2022-10-23T05:14:06.055Z,22.33
2022-10-23T05:16:34.171Z,22.98
2022-10-23T05:19:02.081Z,24.08
2022-10-23T05:21:29.732Z,24.94
2022-10-23T05:23:57.453Z,25.71
2022-10-23T05:26:25.336Z,26.47
2022-10-23T05:28:53.024Z,27.78
2022-10-23T05:31:20.746Z,28.15
2022-10-23T05:33:48.549Z,29.14
2022-10-23T05:36:16.224Z,29.68
2022-10-23T05:38:44.098Z,30.30
2022-10-23T05:41:11.787Z,31.11
2022-10-23T05:43:39.435Z,31.96
2022-10-23T05:46:07.174Z,32.24
2022-10-23T05:48:35.554Z,33.07
2022-10-23T05:51:03.394Z,33.70
2022-10-23T05:53:31.247Z,34.52
2022-10-23T05:55:59.438Z,34.98
2022-10-23T05:58:27.094Z,35.45
2022-10-23T06:00:54.772Z,35.89
2022-10-23T06:03:22.378Z,36.38
2022-10-23T06:05:50.214Z,36.72
2022-10-23T06:08:17.895Z,36.74
2022-10-23T06:10:45.691Z,37.36
2022-10-23T06:13:13.418Z,37.45
2022-10-23T06:15:41.099Z,38.03
2022-10-23T06:18:08.980Z,38.33
2022-10-23T06:20:36.759Z,37.92
2022-10-23T06:23:04.467Z,37.59
2022-10-23T06:25:32.329Z,37.85
2022-10-23T06:28:00.094Z,37.89
2022-10-23T06:30:28.369Z,37.51
2022-10-23T06:32:56.168Z,37.84
2022-10-23T06:35:24.158Z,37.97
2022-10-23T06:37:51.812Z,38.22
2022-10-23T06:40:19.603Z,38.61
2022-10-23T06:42:47.331Z,39.04
2022-10-23T06:45:15.055Z,39.25
2022-10-23T06:47:43.152Z,39.08
2022-10-23T06:50:13.181Z,39.48
2022-10-23T06:52:47.040Z,39.83
2022-10-23T06:55:15.292Z,39.99
2022-10-23T06:57:43.226Z,39.69
2022-10-23T07:00:11.134Z,39.92
2022-10-23T07:02:38.815Z,40.07
2022-10-23T07:05:08.764Z,40.39
2022-10-23T07:07:40.377Z,40.86
2022-10-23T07:10:08.081Z,40.80
2022-10-23T07:12:35.801Z,41.25
2022-10-23T07:15:03.655Z,41.24
2022-10-23T07:17:31.249Z,41.52
2022-10-23T07:19:58.889Z,41.30
2022-10-23T07:22:26.606Z,41.41
2022-10-23T07:24:54.245Z,41.46
2022-10-23T07:27:21.851Z,41.84
2022-10-23T07:29:49.511Z,41.53
2022-10-23T07:32:17.135Z,41.38
2022-10-23T07:34:44.759Z,42.13
2022-10-23T07:37:12.712Z,41.79
2022-10-23T07:39:40.361Z,42.31
2022-10-23T07:42:09.506Z,42.10
2022-10-23T07:44:37.149Z,42.02
2022-10-23T07:47:04.799Z,42.33
2022-10-23T07:49:32.619Z,42.50
2022-10-23T07:52:00.264Z,42.26
2022-10-23T07:54:27.912Z,42.54
2022-10-23T07:56:55.751Z,42.38
2022-10-23T07:59:23.375Z,42.51
2022-10-23T08:01:53.850Z,42.96
2022-10-23T08:04:23.626Z,42.65
2022-10-23T08:06:51.277Z,42.76
2022-10-23T08:09:18.881Z,42.69
2022-10-23T08:11:46.737Z,43.20
2022-10-23T08:14:14.339Z,42.96
2022-10-23T08:16:41.944Z,43.09
2022-10-23T08:19:09.812Z,42.90
2022-10-23T08:21:37.437Z,43.04
2022-10-23T08:24:05.094Z,43.42
2022-10-23T08:26:32.947Z,43.47
2022-10-23T08:29:00.626Z,43.30
2022-10-23T08:31:28.368Z,42.80
2022-10-23T08:33:55.959Z,42.99
2022-10-23T08:36:23.691Z,43.05
2022-10-23T08:38:52.152Z,43.00
2022-10-23T08:41:19.886Z,43.43
2022-10-23T08:43:47.702Z,43.46
2022-10-23T08:46:15.539Z,43.21
2022-10-23T08:48:43.359Z,43.06
2022-10-23T08:51:10.991Z,43.57
2022-10-23T08:53:38.715Z,42.95
2022-10-23T08:56:06.304Z,43.46
2022-10-23T08:58:33.981Z,43.52
2022-10-23T09:01:01.993Z,43.45
2022-10-23T09:03:30.778Z,43.46
2022-10-23T09:05:58.507Z,43.27
2022-10-23T09:08:26.144Z,43.47
2022-10-23T09:10:53.750Z,43.22
2022-10-23T09:13:21.364Z,43.61
2022-10-23T09:15:48.961Z,43.78
2022-10-23T09:18:16.647Z,43.55
2022-10-23T09:20:44.291Z,43.31
2022-10-23T09:23:11.871Z,43.46
2022-10-23T09:25:39.523Z,43.48
2022-10-23T09:28:07.108Z,43.72
2022-10-23T09:30:34.953Z,43.38
2022-10-23T09:33:02.732Z,43.93
2022-10-23T09:35:30.386Z,43.59
2022-10-23T09:37:58.127Z,43.81
2022-10-23T09:40:25.789Z,43.72
2022-10-23T09:42:53.743Z,43.58
2022-10-23T09:45:21.559Z,43.66
2022-10-23T09:47:52.165Z,44.09
2022-10-23T09:50:19.864Z,43.69
2022-10-23T09:52:47.729Z,43.64
2022-10-23T09:55:15.395Z,43.99
2022-10-23T09:57:43.394Z,43.80
2022-10-23T10:00:11.523Z,43.75
2022-10-23T10:02:39.154Z,44.06
2022-10-23T10:05:06.780Z,44.10
2022-10-23T10:07:36.727Z,44.45
2022-10-23T10:10:04.746Z,44.58
2022-10-23T10:12:32.655Z,44.45
2022-10-23T10:15:00.326Z,44.39
2022-10-23T10:17:28.049Z,44.87
2022-10-23T10:19:55.735Z,44.44
2022-10-23T10:22:23.485Z,44.91
2022-10-23T10:24:51.174Z,44.45
2022-10-23T10:27:18.957Z,45.05
2022-10-23T10:29:46.764Z,44.88
2022-10-23T10:32:14.480Z,44.46
2022-10-23T10:34:42.200Z,44.84
2022-10-23T10:37:09.886Z,44.78
2022-10-23T10:39:39.510Z,44.46
2022-10-23T10:42:07.239Z,44.56
2022-10-23T10:44:34.925Z,45.08
2022-10-23T10:47:02.654Z,44.86
2022-10-23T10:49:30.385Z,44.79
2022-10-23T10:52:00.708Z,44.72
2022-10-23T10:54:28.463Z,44.63
2022-10-23T10:56:56.275Z,44.75
2022-10-23T10:59:23.931Z,44.93
2022-10-23T11:02:13.409Z,44.79
2022-10-23T11:04:58.031Z,44.90
2022-10-23T11:07:26.014Z,45.16
2022-10-23T11:09:53.684Z,45.42
2022-10-23T11:12:21.432Z,44.90
2022-10-23T11:14:49.327Z,45.40
2022-10-23T11:17:17.134Z,44.89
2022-10-23T11:19:45.093Z,45.00
2022-10-23T11:22:12.803Z,45.02
2022-10-23T11:24:42.190Z,45.24
2022-10-23T11:27:11.851Z,44.97
2022-10-23T11:29:40.864Z,44.76
2022-10-23T11:32:08.482Z,45.35
2022-10-23T11:34:36.120Z,44.86
2022-10-23T11:37:04.723Z,45.00
2022-10-23T11:39:32.472Z,45.02
2022-10-23T11:42:00.242Z,45.38
2022-10-23T11:44:27.906Z,44.92
2022-10-23T11:46:55.611Z,44.93
2022-10-23T11:49:24.219Z,44.43
2022-10-23T11:51:51.876Z,43.07
2022-10-23T11:54:22.388Z,41.70
2022-10-23T11:56:50.384Z,40.52
2022-10-23T11:59:18.052Z,39.88
2022-10-23T12:01:46.265Z,39.84
2022-10-23T12:04:13.985Z,39.82
2022-10-23T12:06:41.735Z,39.54
2022-10-23T12:09:09.386Z,39.91
2022-10-23T12:11:37.084Z,40.37
2022-10-23T12:14:04.837Z,40.58
2022-10-23T12:16:32.518Z,40.22
2022-10-23T12:19:00.451Z,40.55
2022-10-23T12:21:28.518Z,40.75
2022-10-23T12:23:56.174Z,41.40
2022-10-23T12:26:24.034Z,41.14
2022-10-23T12:28:51.711Z,41.47
2022-10-23T12:31:19.422Z,41.51
2022-10-23T12:33:47.174Z,41.26
2022-10-23T12:36:14.875Z,41.18
2022-10-23T12:38:42.610Z,41.94
2022-10-23T12:41:10.443Z,41.79
2022-10-23T12:43:38.264Z,41.97
2022-10-23T12:46:06.201Z,41.96
2022-10-23T12:48:33.891Z,41.83
2022-10-23T12:51:01.554Z,42.50
2022-10-23T12:53:29.522Z,42.67
2022-10-23T12:55:57.286Z,42.78
2022-10-23T12:58:25.530Z,42.76
2022-10-23T13:00:53.268Z,42.70
2022-10-23T13:03:20.968Z,43.11
2022-10-23T13:05:48.774Z,42.99
2022-10-23T13:08:19.710Z,42.59
2022-10-23T13:10:49.553Z,42.93
2022-10-23T13:13:17.175Z,43.09
2022-10-23T13:15:44.995Z,43.20
2022-10-23T13:18:14.159Z,42.88
2022-10-23T13:20:56.482Z,43.41
2022-10-23T13:23:24.174Z,43.07
2022-10-23T13:25:51.972Z,43.64
2022-10-23T13:28:19.589Z,43.74
2022-10-23T13:30:47.355Z,43.17
2022-10-23T13:33:15.085Z,43.34
2022-10-23T13:35:42.722Z,43.31
2022-10-23T13:38:10.416Z,43.49
2022-10-23T13:40:38.379Z,43.75
2022-10-23T13:43:06.036Z,43.92
2022-10-23T13:45:33.803Z,44.03
2022-10-23T13:48:01.522Z,43.77
2022-10-23T13:50:29.159Z,43.70
2022-10-23T13:52:56.811Z,43.87
2022-10-23T13:55:24.448Z,43.60
2022-10-23T13:57:52.087Z,44.11
2022-10-23T14:00:19.758Z,44.31
2022-10-23T14:02:47.767Z,44.32
2022-10-23T14:05:15.431Z,44.28
2022-10-23T14:07:43.580Z,43.83
2022-10-23T14:10:11.461Z,44.08
2022-10-23T14:12:39.295Z,44.37
2022-10-23T14:15:06.956Z,43.86
2022-10-23T14:17:34.624Z,43.86
2022-10-23T14:20:04.093Z,43.96
2022-10-23T14:22:33.570Z,43.91
2022-10-23T14:25:01.252Z,44.00
2022-10-23T14:27:29.916Z,44.45
2022-10-23T14:29:59.366Z,43.82
2022-10-23T14:32:27.246Z,44.42
2022-10-23T14:34:54.850Z,43.97
2022-10-23T14:37:22.494Z,43.83
2022-10-23T14:39:50.502Z,44.49
2022-10-23T14:42:18.302Z,44.26
2022-10-23T14:44:45.937Z,44.46
2022-10-23T14:47:13.701Z,44.04
2022-10-23T14:49:42.528Z,43.99
2022-10-23T14:52:10.207Z,43.93
2022-10-23T14:54:38.191Z,44.17
2022-10-23T14:57:05.847Z,44.12
2022-10-23T14:59:33.544Z,44.39
2022-10-23T15:02:01.344Z,44.41
2022-10-23T15:04:28.999Z,44.35
2022-10-23T15:06:56.637Z,44.16
2022-10-23T15:09:25.268Z,44.41
2022-10-23T15:11:53.141Z,44.16
2022-10-23T15:14:20.905Z,44.47
2022-10-23T15:16:48.695Z,44.57
2022-10-23T15:19:18.497Z,44.25
2022-10-23T15:21:46.700Z,44.00
2022-10-23T15:24:14.363Z,44.24
2022-10-23T15:29:57.350Z,44.09
2022-10-23T15:32:28.911Z,44.42
2022-10-23T15:35:12.493Z,44.36
2022-10-23T15:37:41.385Z,44.84
2022-10-23T15:40:09.370Z,44.16
2022-10-23T15:42:37.128Z,44.73
2022-10-23T15:45:04.789Z,44.66
2022-10-23T15:47:32.695Z,44.24
2022-10-23T15:50:00.354Z,44.03
2022-10-23T15:52:28.028Z,44.08
2022-10-23T15:54:55.799Z,44.65
2022-10-23T15:57:23.475Z,44.56
2022-10-23T15:59:51.198Z,44.16
2022-10-23T16:02:19.089Z,44.25
2022-10-23T16:04:46.967Z,44.50
2022-10-23T16:07:14.686Z,44.19
2022-10-23T16:09:42.483Z,44.71
2022-10-23T16:12:10.168Z,44.58
2022-10-23T16:14:37.900Z,44.47
2022-10-23T16:17:07.613Z,44.51
2022-10-23T16:19:35.474Z,44.34
2022-10-23T16:22:03.773Z,44.46
2022-10-23T16:24:31.405Z,44.58
2022-10-23T16:26:59.053Z,44.10
2022-10-23T16:29:26.716Z,44.66
2022-10-23T16:31:54.389Z,44.25
2022-10-23T16:34:23.047Z,44.30
2022-10-23T16:36:50.794Z,44.56
2022-10-23T16:39:18.505Z,44.13
2022-10-23T16:41:46.186Z,44.18
2022-10-23T16:44:13.988Z,44.23
2022-10-23T16:46:41.687Z,44.29
2022-10-23T16:49:09.558Z,44.23
2022-10-23T16:51:37.274Z,44.56
2022-10-23T16:54:04.906Z,44.65
2022-10-23T16:56:32.630Z,44.48
2022-10-23T16:59:00.463Z,44.97
2022-10-23T17:01:28.432Z,44.24
2022-10-23T17:03:56.168Z,44.94
2022-10-23T17:06:23.800Z,44.54
2022-10-23T17:08:51.448Z,44.46
2022-10-23T17:11:19.168Z,44.44
2022-10-23T17:13:46.840Z,44.78
2022-10-23T17:16:15.579Z,44.91
2022-10-23T17:18:44.036Z,44.96
2022-10-23T17:21:12.226Z,44.95
2022-10-23T17:23:39.859Z,44.36
2022-10-23T17:26:07.677Z,44.80
2022-10-23T17:28:39.855Z,44.69
2022-10-23T17:31:07.555Z,44.43
2022-10-23T17:33:35.280Z,44.28
2022-10-23T17:36:03.240Z,44.78
2022-10-23T17:38:30.882Z,44.30
2022-10-23T17:40:58.559Z,44.99
2022-10-23T17:43:26.321Z,44.36
2022-10-23T17:45:53.991Z,44.84
2022-10-23T17:48:21.701Z,44.75
2022-10-23T17:50:49.330Z,44.25
2022-10-23T17:53:20.271Z,44.40
2022-10-23T17:55:47.924Z,44.41
2022-10-23T17:58:15.595Z,44.44
2022-10-23T18:00:43.749Z,44.66
2022-10-23T18:03:11.539Z,44.41
2022-10-23T18:05:40.982Z,44.19
2022-10-23T18:08:08.716Z,44.70
2022-10-23T18:10:36.404Z,44.33
2022-10-23T18:13:05.201Z,44.78
2022-10-23T18:15:32.919Z,44.40
2022-10-23T18:18:00.583Z,44.75
2022-10-23T18:20:28.250Z,44.95
2022-10-23T18:22:56.066Z,44.48
2022-10-23T18:25:23.744Z,44.76
2022-10-23T18:27:51.604Z,44.35
2022-10-23T18:30:19.315Z,44.22
2022-10-23T18:32:47.157Z,44.65
2022-10-23T18:35:14.900Z,44.81
2022-10-23T18:37:42.612Z,44.23
2022-10-23T18:40:12.615Z,44.69
2022-10-23T18:42:40.258Z,44.57
2022-10-23T18:45:07.932Z,44.41
2022-10-23T18:47:35.595Z,44.33
2022-10-23T18:50:03.281Z,44.77
2022-10-23T18:52:30.982Z,44.26
2022-10-23T18:54:58.676Z,44.42
2022-10-23T18:57:26.319Z,44.29
2022-10-23T18:59:54.283Z,44.47
2022-10-23T19:02:22.122Z,44.47
2022-10-23T19:04:49.986Z,44.91
2022-10-23T19:07:19.869Z,44.36
2022-10-23T19:09:47.570Z,44.60
2022-10-23T19:12:15.594Z,44.84
2022-10-23T19:14:43.317Z,44.60
2022-10-23T19:17:14.711Z,44.57
2022-10-23T19:19:42.595Z,44.99
2022-10-23T19:22:10.238Z,45.14
2022-10-23T19:24:38.139Z,44.98
2022-10-23T19:27:05.787Z,44.92
2022-10-23T19:29:33.435Z,44.79
2022-10-23T19:32:02.353Z,44.55
2022-10-23T19:34:30.143Z,44.35
2022-10-23T19:36:57.868Z,44.34
2022-10-23T19:39:26.019Z,44.86
2022-10-23T19:41:53.783Z,44.94
2022-10-23T19:44:21.460Z,44.72
2022-10-23T19:46:50.305Z,44.58
2022-10-23T19:49:17.992Z,44.79
2022-10-23T19:51:50.660Z,44.69
2022-10-23T19:54:19.062Z,44.72
2022-10-23T19:56:46.714Z,44.39
2022-10-23T19:59:15.705Z,44.77
2022-10-23T20:01:46.353Z,44.93
2022-10-23T20:04:16.831Z,44.75
2022-10-23T20:06:44.482Z,44.26
2022-10-23T20:09:12.550Z,44.33
2022-10-23T20:11:40.416Z,44.32
2022-10-23T20:14:08.073Z,44.30
2022-10-23T20:16:35.867Z,44.39
2022-10-23T20:19:03.685Z,44.77
2022-10-23T20:21:31.420Z,44.40
2022-10-23T20:23:59.210Z,44.41
2022-10-23T20:26:27.090Z,44.83
2022-10-23T20:28:54.730Z,44.42
2022-10-23T20:31:22.446Z,44.74
2022-10-23T20:33:50.119Z,44.19
2022-10-23T20:36:17.844Z,44.66
2022-10-23T20:38:47.676Z,44.68
2022-10-23T20:41:15.395Z,44.38
2022-10-23T20:43:43.093Z,44.51
2022-10-23T20:46:11.031Z,44.44
2022-10-23T20:48:38.730Z,44.50
2022-10-23T20:51:08.588Z,44.86
2022-10-23T20:53:38.435Z,44.56
2022-10-23T20:56:07.509Z,44.46
2022-10-23T20:58:35.303Z,44.86
2022-10-23T21:01:03.213Z,45.18
2022-10-23T21:03:31.035Z,44.69
2022-10-23T21:05:58.676Z,45.39
2022-10-23T21:08:26.371Z,45.40
2022-10-23T21:10:54.198Z,45.41
2022-10-23T21:13:21.928Z,44.96
2022-10-23T21:15:49.678Z,45.22
2022-10-23T21:18:27.524Z,45.19
2022-10-23T21:21:05.819Z,44.99
2022-10-23T21:23:33.514Z,45.20
2022-10-23T21:26:03.477Z,44.84
2022-10-23T21:28:33.964Z,45.43
2022-10-23T21:31:01.705Z,45.03
2022-10-23T21:33:29.798Z,45.42
2022-10-23T21:35:58.558Z,45.09
2022-10-23T21:38:32.501Z,45.12
2022-10-23T21:41:02.629Z,45.43
2022-10-23T21:43:30.305Z,45.60
2022-10-23T21:45:58.871Z,45.27
2022-10-23T21:48:26.596Z,45.44
2022-10-23T21:50:54.290Z,45.47
2022-10-23T21:53:21.916Z,45.87
2022-10-23T21:55:49.641Z,45.61
2022-10-23T21:58:17.686Z,45.87
2022-10-23T22:00:45.274Z,45.93
2022-10-23T22:03:12.897Z,45.81
2022-10-23T22:05:40.528Z,45.66
2022-10-23T22:08:08.148Z,45.27
2022-10-23T22:10:36.097Z,45.46
2022-10-23T22:13:03.723Z,45.68
2022-10-23T22:15:31.536Z,45.33
2022-10-23T22:18:00.468Z,45.34
2022-10-23T22:20:28.124Z,45.43
2022-10-23T22:22:55.767Z,45.64
2022-10-23T22:25:25.759Z,45.29
2022-10-23T22:27:53.480Z,45.11
2022-10-23T22:30:21.165Z,45.46
2022-10-23T22:32:48.961Z,45.02
2022-10-23T22:35:16.631Z,45.08
2022-10-23T22:37:44.308Z,45.56
2022-10-23T22:40:12.162Z,45.12
2022-10-23T22:42:39.882Z,45.22
2022-10-23T22:45:07.537Z,45.66
2022-10-23T22:47:35.197Z,44.95
2022-10-23T22:50:02.963Z,45.69
2022-10-23T22:52:30.818Z,44.93
2022-10-23T22:54:58.635Z,45.09
2022-10-23T22:59:59.077Z,45.50
2022-10-23T23:02:26.747Z,45.23
2022-10-23T23:04:54.401Z,45.58
2022-10-23T23:07:22.069Z,45.67
2022-10-23T23:09:50.860Z,45.52
2022-10-23T23:12:18.537Z,45.44
2022-10-23T23:14:46.249Z,45.50
2022-10-23T23:17:13.859Z,45.17
2022-10-23T23:19:41.446Z,45.36
2022-10-23T23:22:09.863Z,45.36
2022-10-23T23:24:37.479Z,45.41
2022-10-23T23:27:05.145Z,45.52
2022-10-23T23:29:32.829Z,45.65
2022-10-23T23:32:00.457Z,45.30
2022-10-23T23:34:28.155Z,45.70
2022-10-23T23:36:55.813Z,45.37
2022-10-23T23:39:23.757Z,45.78
2022-10-23T23:41:51.433Z,45.24
2022-10-23T23:44:19.062Z,45.15
2022-10-23T23:46:46.725Z,45.80
2022-10-23T23:49:14.344Z,45.54
2022-10-23T23:51:42.079Z,45.07
2022-10-23T23:54:09.695Z,45.78
2022-10-23T23:56:37.517Z,45.60
2022-10-23T23:59:05.180Z,45.15
